createdAt,value
2017-11-22T00:00:37.648Z,0.00
2017-11-22T00:01:37.554Z,0.00
2017-11-22T00:02:37.477Z,0.00
2017-11-22T00:03:37.385Z,0.00
2017-11-22T00:04:37.298Z,0.00
2017-11-22T00:05:37.256Z,0.00
2017-11-22T00:06:37.121Z,0.00
2017-11-22T00:07:37.035Z,0.00
2017-11-22T00:08:36.950Z,0.00
2017-11-22T00:09:36.868Z,0.00
2017-11-22T00:10:36.780Z,0.00
2017-11-22T00:11:36.714Z,0.00
2017-11-22T00:12:36.603Z,0.00
2017-11-22T00:13:36.513Z,0.00
2017-11-22T00:14:36.427Z,0.00
2017-11-22T00:15:36.342Z,0.00
2017-11-22T00:16:36.252Z,0.00
2017-11-22T00:17:36.165Z,0.00
2017-11-22T00:18:36.078Z,0.00
2017-11-22T00:19:35.991Z,0.00
2017-11-22T00:20:35.901Z,0.00
2017-11-22T00:21:35.816Z,0.00
2017-11-22T00:22:35.730Z,0.00
2017-11-22T00:23:35.644Z,0.00
2017-11-22T00:24:35.556Z,0.00
2017-11-22T00:25:35.474Z,0.00
2017-11-22T00:26:35.382Z,0.00
2017-11-22T00:27:35.301Z,0.00
2017-11-22T00:28:35.201Z,0.00
2017-11-22T00:29:35.115Z,0.00
2017-11-22T00:30:35.031Z,0.00
2017-11-22T00:31:34.952Z,0.00
2017-11-22T00:32:34.866Z,0.00
2017-11-22T00:33:34.772Z,0.00
2017-11-22T00:34:34.786Z,0.00
2017-11-22T00:35:34.607Z,0.00
2017-11-22T00:36:34.511Z,0.00
2017-11-22T00:37:34.424Z,0.00
2017-11-22T00:38:34.333Z,0.00
2017-11-22T00:39:34.250Z,0.00
2017-11-22T00:40:34.171Z,0.00
2017-11-22T00:41:34.097Z,0.00
2017-11-22T00:42:34.001Z,0.00
2017-11-22T00:43:33.906Z,0.00
2017-11-22T00:44:33.818Z,0.00
2017-11-22T00:45:33.729Z,0.00
2017-11-22T00:46:33.643Z,0.00
2017-11-22T00:47:33.561Z,0.00
2017-11-22T00:48:33.474Z,0.00
2017-11-22T00:49:33.393Z,0.00
2017-11-22T00:50:33.298Z,0.00
2017-11-22T00:51:33.216Z,0.00
2017-11-22T00:52:33.129Z,0.00
2017-11-22T00:53:33.052Z,0.00
2017-11-22T00:54:32.984Z,0.00
2017-11-22T00:55:32.870Z,0.00
2017-11-22T00:56:32.789Z,0.00
2017-11-22T00:57:32.690Z,0.00
2017-11-22T00:58:32.612Z,0.00
2017-11-22T00:59:32.522Z,0.00
2017-11-22T01:00:32.507Z,0.00
2017-11-22T01:01:32.435Z,0.00
2017-11-22T01:02:32.294Z,0.00
2017-11-22T01:03:32.178Z,0.00
2017-11-22T01:04:32.093Z,0.00
2017-11-22T01:05:32.008Z,0.00
2017-11-22T01:06:31.926Z,0.00
2017-11-22T01:07:31.836Z,0.00
2017-11-22T01:08:31.749Z,0.00
2017-11-22T01:09:31.669Z,0.00
2017-11-22T01:10:31.578Z,0.00
2017-11-22T01:11:31.491Z,0.00
2017-11-22T01:12:31.398Z,0.00
2017-11-22T01:13:31.310Z,0.00
2017-11-22T01:14:31.230Z,0.00
2017-11-22T01:15:31.145Z,0.00
2017-11-22T01:16:31.054Z,0.00
2017-11-22T01:17:30.978Z,0.00
2017-11-22T01:18:30.884Z,0.00
2017-11-22T01:19:30.796Z,0.00
2017-11-22T01:20:30.716Z,0.00
2017-11-22T01:21:30.622Z,0.00
2017-11-22T01:22:30.538Z,0.00
2017-11-22T01:23:30.453Z,0.00
2017-11-22T01:24:30.368Z,0.00
2017-11-22T01:25:30.286Z,0.00
2017-11-22T01:26:30.194Z,0.00
2017-11-22T01:27:30.106Z,0.00
2017-11-22T01:28:30.017Z,0.00
2017-11-22T01:29:29.939Z,0.00
2017-11-22T01:30:29.854Z,0.00
2017-11-22T01:31:29.762Z,0.00
2017-11-22T01:32:29.697Z,0.00
2017-11-22T01:33:29.594Z,0.00
2017-11-22T01:34:29.508Z,0.00
2017-11-22T01:35:29.435Z,0.00
2017-11-22T01:36:29.333Z,0.00
2017-11-22T01:37:29.250Z,0.00
2017-11-22T01:38:29.158Z,0.00
2017-11-22T01:39:29.070Z,0.00
2017-11-22T01:40:28.987Z,0.00
2017-11-22T01:41:28.904Z,0.00
2017-11-22T01:42:28.814Z,0.00
2017-11-22T01:43:28.734Z,0.00
2017-11-22T01:44:28.643Z,0.00
2017-11-22T01:45:28.556Z,0.00
2017-11-22T01:46:28.475Z,0.00
2017-11-22T01:47:28.387Z,0.00
2017-11-22T01:48:28.297Z,0.00
2017-11-22T01:49:28.213Z,0.00
2017-11-22T01:50:28.127Z,0.00
2017-11-22T01:51:28.042Z,0.00
2017-11-22T01:52:27.961Z,0.00
2017-11-22T01:53:27.874Z,0.00
2017-11-22T01:54:27.784Z,0.00
2017-11-22T01:55:27.693Z,0.00
2017-11-22T01:56:27.609Z,0.00
2017-11-22T01:57:27.527Z,0.00
2017-11-22T01:58:27.439Z,0.00
2017-11-22T01:59:27.354Z,0.00
2017-11-22T02:00:27.266Z,0.00
2017-11-22T02:01:27.178Z,0.00
2017-11-22T02:02:27.104Z,0.00
2017-11-22T02:03:27.013Z,0.00
2017-11-22T02:04:26.929Z,0.00
2017-11-22T02:05:26.835Z,0.00
2017-11-22T02:06:26.754Z,0.00
2017-11-22T02:07:26.670Z,0.00
2017-11-22T02:08:26.576Z,0.00
2017-11-22T02:09:26.488Z,0.00
2017-11-22T02:10:26.406Z,0.00
2017-11-22T02:11:26.319Z,0.00
2017-11-22T02:12:26.231Z,0.00
2017-11-22T02:13:26.150Z,0.00
2017-11-22T02:14:26.060Z,0.00
2017-11-22T02:15:25.974Z,0.00
2017-11-22T02:16:25.890Z,0.00
2017-11-22T02:17:25.804Z,0.00
2017-11-22T02:18:25.715Z,0.00
2017-11-22T02:19:25.628Z,0.00
2017-11-22T02:20:25.541Z,0.00
2017-11-22T02:21:25.460Z,0.00
2017-11-22T02:22:25.370Z,0.00
2017-11-22T02:23:25.285Z,0.00
2017-11-22T02:24:25.200Z,0.00
2017-11-22T02:25:25.167Z,0.00
2017-11-22T02:26:25.025Z,0.00
2017-11-22T02:27:24.934Z,0.00
2017-11-22T02:28:24.855Z,0.00
2017-11-22T02:29:24.763Z,0.00
2017-11-22T02:30:24.677Z,0.00
2017-11-22T02:31:24.586Z,0.00
2017-11-22T02:32:24.509Z,0.00
2017-11-22T02:33:24.429Z,0.00
2017-11-22T02:34:24.351Z,0.00
2017-11-22T02:35:24.248Z,0.00
2017-11-22T02:36:24.159Z,0.00
2017-11-22T02:37:24.068Z,0.00
2017-11-22T02:38:23.994Z,0.00
2017-11-22T02:39:23.902Z,0.00
2017-11-22T02:40:23.816Z,0.00
2017-11-22T02:41:23.736Z,0.00
2017-11-22T02:42:23.649Z,0.00
2017-11-22T02:43:23.560Z,0.00
2017-11-22T02:44:23.482Z,0.00
2017-11-22T02:45:23.382Z,0.00
2017-11-22T02:46:23.315Z,0.00
2017-11-22T02:47:23.233Z,0.00
2017-11-22T02:48:23.126Z,0.00
2017-11-22T02:49:23.040Z,0.00
2017-11-22T02:50:22.956Z,0.00
2017-11-22T02:51:22.872Z,0.00
2017-11-22T02:52:22.789Z,0.00
2017-11-22T02:53:22.698Z,0.00
2017-11-22T02:54:22.608Z,0.00
2017-11-22T02:55:22.525Z,0.00
2017-11-22T02:56:22.443Z,0.00
2017-11-22T02:57:22.353Z,0.00
2017-11-22T02:58:22.261Z,0.00
2017-11-22T02:59:22.195Z,0.00
2017-11-22T03:00:22.089Z,0.00
2017-11-22T03:01:22.008Z,0.00
2017-11-22T03:02:21.929Z,0.00
2017-11-22T03:03:21.836Z,0.00
2017-11-22T03:04:21.750Z,0.00
2017-11-22T03:05:21.669Z,0.00
2017-11-22T03:06:21.579Z,0.00
2017-11-22T03:07:21.499Z,0.00
2017-11-22T03:08:21.410Z,0.00
2017-11-22T03:09:21.320Z,0.00
2017-11-22T03:10:21.235Z,0.00
2017-11-22T03:11:21.155Z,0.00
2017-11-22T03:12:21.059Z,0.00
2017-11-22T03:13:20.975Z,0.00
2017-11-22T03:14:20.900Z,0.00
2017-11-22T03:15:20.808Z,0.00
2017-11-22T03:16:20.715Z,0.00
2017-11-22T03:17:20.629Z,0.00
2017-11-22T03:18:20.556Z,0.00
2017-11-22T03:19:20.461Z,0.00
2017-11-22T03:20:20.379Z,0.00
2017-11-22T03:21:20.289Z,0.00
2017-11-22T03:22:20.205Z,0.00
2017-11-22T03:23:20.116Z,0.00
2017-11-22T03:24:20.038Z,0.00
2017-11-22T03:25:19.939Z,0.00
2017-11-22T03:26:19.860Z,0.00
2017-11-22T03:27:19.771Z,0.00
2017-11-22T03:28:19.685Z,0.00
2017-11-22T03:29:19.813Z,0.00
2017-11-22T03:30:19.525Z,0.00
2017-11-22T03:31:19.438Z,0.00
2017-11-22T03:32:19.337Z,0.00
2017-11-22T03:33:19.257Z,0.00
2017-11-22T03:34:19.169Z,0.00
2017-11-22T03:35:19.088Z,0.00
2017-11-22T03:36:18.999Z,0.00
2017-11-22T03:37:18.911Z,0.00
2017-11-22T03:38:18.823Z,0.00
2017-11-22T03:39:18.740Z,0.00
2017-11-22T03:40:18.833Z,0.00
2017-11-22T03:41:18.573Z,0.00
2017-11-22T03:42:18.493Z,0.00
2017-11-22T03:43:18.393Z,0.00
2017-11-22T03:44:18.316Z,0.00
2017-11-22T03:45:18.217Z,0.00
2017-11-22T03:46:18.136Z,0.00
2017-11-22T03:47:18.049Z,0.00
2017-11-22T03:48:17.958Z,0.00
2017-11-22T03:49:17.868Z,0.00
2017-11-22T03:50:17.787Z,0.00
2017-11-22T03:51:17.701Z,0.00
2017-11-22T03:52:17.622Z,0.00
2017-11-22T03:53:17.535Z,0.00
2017-11-22T03:54:17.443Z,0.00
2017-11-22T03:55:17.368Z,0.00
2017-11-22T03:56:17.268Z,0.00
2017-11-22T03:57:17.178Z,0.00
2017-11-22T03:58:17.113Z,0.00
2017-11-22T03:59:17.012Z,0.00
2017-11-22T04:00:16.920Z,0.00
2017-11-22T04:01:16.835Z,0.00
2017-11-22T04:02:16.749Z,0.00
2017-11-22T04:03:16.703Z,0.00
2017-11-22T04:04:16.584Z,0.00
2017-11-22T04:05:16.490Z,0.00
2017-11-22T04:06:16.401Z,0.00
2017-11-22T04:07:16.312Z,0.00
2017-11-22T04:08:16.227Z,0.00
2017-11-22T04:09:16.142Z,0.00
2017-11-22T04:10:16.058Z,0.00
2017-11-22T04:11:15.970Z,0.00
2017-11-22T04:12:15.885Z,0.00
2017-11-22T04:13:15.795Z,0.00
2017-11-22T04:14:15.705Z,0.00
2017-11-22T04:15:15.649Z,0.00
2017-11-22T04:16:15.551Z,0.00
2017-11-22T04:17:15.463Z,0.00
2017-11-22T04:18:15.360Z,0.00
2017-11-22T04:19:15.279Z,0.00
2017-11-22T04:20:15.192Z,0.00
2017-11-22T04:21:15.103Z,0.00
2017-11-22T04:22:15.015Z,0.00
2017-11-22T04:23:14.926Z,0.00
2017-11-22T04:24:14.848Z,0.00
2017-11-22T04:25:14.755Z,0.00
2017-11-22T04:26:14.687Z,0.00
2017-11-22T04:27:14.596Z,0.00
2017-11-22T04:28:14.499Z,0.00
2017-11-22T04:29:14.410Z,0.00
2017-11-22T04:30:14.325Z,0.00
2017-11-22T04:31:14.230Z,0.00
2017-11-22T04:32:14.151Z,0.00
2017-11-22T04:33:14.058Z,0.00
2017-11-22T04:34:13.979Z,0.00
2017-11-22T04:35:13.889Z,0.00
2017-11-22T04:36:13.831Z,0.00
2017-11-22T04:37:13.712Z,0.00
2017-11-22T04:38:13.625Z,0.00
2017-11-22T04:39:13.573Z,0.00
2017-11-22T04:40:13.450Z,0.00
2017-11-22T04:41:13.361Z,0.00
2017-11-22T04:42:13.270Z,0.00
2017-11-22T04:43:13.182Z,0.00
2017-11-22T04:44:13.095Z,0.00
2017-11-22T04:45:13.020Z,0.00
2017-11-22T04:46:12.936Z,0.00
2017-11-22T04:47:12.841Z,0.00
2017-11-22T04:48:12.752Z,0.00
2017-11-22T04:49:12.664Z,0.00
2017-11-22T04:50:12.576Z,0.00
2017-11-22T04:51:12.485Z,0.00
2017-11-22T04:52:12.401Z,0.00
2017-11-22T04:53:12.313Z,0.00
2017-11-22T04:54:12.224Z,0.00
2017-11-22T04:55:12.134Z,0.00
2017-11-22T04:56:12.047Z,0.00
2017-11-22T04:57:11.966Z,0.00
2017-11-22T04:58:11.875Z,0.00
2017-11-22T04:59:11.790Z,0.00
2017-11-22T05:00:11.721Z,0.00
2017-11-22T05:01:11.618Z,0.00
2017-11-22T05:02:11.517Z,0.00
2017-11-22T05:03:11.431Z,0.00
2017-11-22T05:04:11.340Z,0.00
2017-11-22T05:05:11.252Z,0.00
2017-11-22T05:06:11.193Z,0.00
2017-11-22T05:07:11.078Z,0.00
2017-11-22T05:08:10.989Z,0.00
2017-11-22T05:09:10.901Z,0.00
2017-11-22T05:10:10.806Z,0.00
2017-11-22T05:11:10.718Z,0.00
2017-11-22T05:12:10.634Z,0.00
2017-11-22T05:13:10.548Z,0.00
2017-11-22T05:14:10.465Z,0.00
2017-11-22T05:15:10.373Z,0.00
2017-11-22T05:16:10.286Z,0.00
2017-11-22T05:17:10.195Z,0.00
2017-11-22T05:18:10.104Z,0.00
2017-11-22T05:19:10.018Z,0.00
2017-11-22T05:20:09.954Z,0.00
2017-11-22T05:21:09.851Z,0.00
2017-11-22T05:22:09.760Z,0.00
2017-11-22T05:23:09.668Z,0.00
2017-11-22T05:24:09.587Z,0.00
2017-11-22T05:25:09.501Z,0.00
2017-11-22T05:26:09.470Z,0.00
2017-11-22T05:27:09.330Z,0.00
2017-11-22T05:28:09.240Z,0.00
2017-11-22T05:29:09.148Z,0.00
2017-11-22T05:30:09.067Z,0.00
2017-11-22T05:31:08.980Z,0.00
2017-11-22T05:32:08.902Z,0.00
2017-11-22T05:33:08.815Z,0.00
2017-11-22T05:34:08.715Z,0.00
2017-11-22T05:35:08.627Z,0.00
2017-11-22T05:36:08.552Z,0.00
2017-11-22T05:37:08.462Z,0.00
2017-11-22T05:38:08.376Z,0.00
2017-11-22T05:39:08.297Z,0.00
2017-11-22T05:40:08.200Z,0.00
2017-11-22T05:41:08.118Z,0.00
2017-11-22T05:42:08.031Z,0.00
2017-11-22T05:43:07.955Z,0.00
2017-11-22T05:44:07.855Z,0.00
2017-11-22T05:45:07.769Z,0.00
2017-11-22T05:46:07.689Z,0.00
2017-11-22T05:47:07.596Z,0.00
2017-11-22T05:48:07.520Z,0.00
2017-11-22T05:49:07.427Z,0.00
2017-11-22T05:50:07.334Z,0.00
2017-11-22T05:51:07.255Z,0.00
2017-11-22T05:52:07.168Z,0.00
2017-11-22T05:53:07.079Z,0.00
2017-11-22T05:54:06.995Z,0.00
2017-11-22T05:55:06.914Z,0.00
2017-11-22T05:56:06.822Z,0.00
2017-11-22T05:57:06.738Z,0.00
2017-11-22T05:58:06.652Z,0.00
2017-11-22T05:59:06.564Z,0.00
2017-11-22T06:00:06.485Z,0.00
2017-11-22T06:01:06.393Z,0.00
2017-11-22T06:02:06.307Z,0.00
2017-11-22T06:03:06.241Z,0.00
2017-11-22T06:04:06.137Z,0.00
2017-11-22T06:05:06.046Z,0.00
2017-11-22T06:06:05.993Z,0.00
2017-11-22T06:07:05.886Z,0.00
2017-11-22T06:08:05.793Z,0.00
2017-11-22T06:09:05.695Z,4.00
2017-11-22T06:10:05.616Z,4.00
2017-11-22T06:11:05.528Z,4.00
2017-11-22T06:12:05.444Z,0.00
2017-11-22T06:13:05.353Z,4.00
2017-11-22T06:14:05.267Z,4.00
2017-11-22T06:15:05.181Z,8.00
2017-11-22T06:16:05.101Z,4.00
2017-11-22T06:17:05.026Z,8.00
2017-11-22T06:18:04.918Z,8.00
2017-11-22T06:19:04.838Z,8.00
2017-11-22T06:20:04.749Z,8.00
2017-11-22T06:21:04.698Z,12.00
2017-11-22T06:22:04.572Z,16.00
2017-11-22T06:23:04.484Z,16.00
2017-11-22T06:24:04.413Z,20.00
2017-11-22T06:25:04.309Z,28.00
2017-11-22T06:26:04.225Z,32.00
2017-11-22T06:27:04.136Z,36.00
2017-11-22T06:28:04.050Z,48.00
2017-11-22T06:29:04.047Z,52.00
2017-11-22T06:30:03.880Z,60.00
2017-11-22T06:31:03.798Z,76.00
2017-11-22T06:32:03.704Z,88.00
2017-11-22T06:33:03.613Z,100.00
2017-11-22T06:34:03.528Z,120.00
2017-11-22T06:35:03.455Z,136.00
2017-11-22T06:36:03.378Z,156.00
2017-11-22T06:37:03.954Z,180.00
2017-11-22T06:38:03.179Z,204.00
2017-11-22T06:39:03.095Z,236.00
2017-11-22T06:40:03.017Z,264.00
2017-11-22T06:41:02.923Z,296.00
2017-11-22T06:42:02.842Z,328.00
2017-11-22T06:43:02.751Z,356.00
2017-11-22T06:44:02.669Z,384.00
2017-11-22T06:45:02.574Z,408.00
2017-11-22T06:46:02.505Z,440.00
2017-11-22T06:47:02.397Z,472.00
2017-11-22T06:48:02.314Z,508.00
2017-11-22T06:49:02.227Z,548.00
2017-11-22T06:50:02.162Z,596.00
2017-11-22T06:51:02.054Z,648.00
2017-11-22T06:52:01.968Z,700.00
2017-11-22T06:53:01.886Z,756.00
2017-11-22T06:54:01.814Z,812.00
2017-11-22T06:55:01.710Z,876.00
2017-11-22T06:56:01.619Z,952.00
2017-11-22T06:57:01.537Z,1048.00
2017-11-22T06:58:01.451Z,1128.00
2017-11-22T06:59:01.362Z,1168.00
2017-11-22T07:00:01.278Z,1228.00
2017-11-22T07:01:01.188Z,1300.00
2017-11-22T07:02:01.100Z,1384.00
2017-11-22T07:03:01.014Z,1460.00
2017-11-22T07:04:00.928Z,1540.00
2017-11-22T07:05:00.849Z,1628.00
2017-11-22T07:06:00.757Z,1712.00
2017-11-22T07:07:00.668Z,1804.00
2017-11-22T07:08:00.578Z,1900.00
2017-11-22T07:09:00.512Z,1996.00
2017-11-22T07:10:00.415Z,2096.00
2017-11-22T07:11:00.352Z,2204.00
2017-11-22T07:12:00.246Z,2284.00
2017-11-22T07:13:00.154Z,2368.00
2017-11-22T07:14:00.074Z,2464.00
2017-11-22T07:14:59.979Z,2548.00
2017-11-22T07:15:59.911Z,2636.00
2017-11-22T07:16:59.806Z,2704.00
2017-11-22T07:17:59.718Z,2780.00
2017-11-22T07:18:59.625Z,2852.00
2017-11-22T07:19:59.548Z,2936.00
2017-11-22T07:20:59.456Z,3016.00
2017-11-22T07:21:59.372Z,3084.00
2017-11-22T07:22:59.308Z,3144.00
2017-11-22T07:23:59.219Z,3220.00
2017-11-22T07:24:59.110Z,3292.00
2017-11-22T07:25:59.026Z,3400.00
2017-11-22T07:26:58.950Z,3608.00
2017-11-22T07:27:58.903Z,4116.00
2017-11-22T07:28:58.812Z,4560.00
2017-11-22T07:29:58.688Z,4856.00
2017-11-22T07:30:58.599Z,5164.00
2017-11-22T07:31:58.509Z,5436.00
2017-11-22T07:32:58.419Z,5884.00
2017-11-22T07:33:58.339Z,6232.00
2017-11-22T07:34:58.248Z,6948.00
2017-11-22T07:35:58.159Z,7672.00
2017-11-22T07:36:58.106Z,10020.00
2017-11-22T07:37:57.995Z,17088.00
2017-11-22T07:38:57.910Z,24576.00
2017-11-22T07:39:57.824Z,30720.00
2017-11-22T07:40:57.732Z,26208.00
2017-11-22T07:41:57.646Z,20448.00
2017-11-22T07:42:57.568Z,17472.00
2017-11-22T07:43:57.479Z,28096.00
2017-11-22T07:44:57.389Z,30176.00
2017-11-22T07:45:57.305Z,27232.00
2017-11-22T07:46:57.254Z,34592.00
2017-11-22T07:47:57.138Z,42048.00
2017-11-22T07:48:57.057Z,48416.00
2017-11-22T07:49:56.981Z,54560.00
2017-11-22T07:50:56.885Z,54944.00
2017-11-22T07:51:56.809Z,55936.00
2017-11-22T07:52:56.723Z,56288.00
2017-11-22T07:53:56.642Z,20224.00
2017-11-22T07:54:56.578Z,11412.00
2017-11-22T07:55:56.498Z,48384.00
2017-11-22T07:56:56.388Z,62848.00
2017-11-22T07:57:56.316Z,64192.00
2017-11-22T07:58:56.219Z,65376.00
2017-11-22T07:59:56.141Z,66816.00
2017-11-22T08:00:56.058Z,42592.00
2017-11-22T08:01:55.978Z,68224.00
2017-11-22T08:02:55.898Z,69952.00
2017-11-22T08:03:55.816Z,67456.00
2017-11-22T08:04:55.739Z,70656.00
2017-11-22T08:05:55.649Z,73504.00
2017-11-22T08:06:55.570Z,73760.00
2017-11-22T08:07:55.503Z,74720.00
2017-11-22T08:08:55.409Z,74016.00
2017-11-22T08:09:55.333Z,72448.00
2017-11-22T08:10:55.254Z,75744.00
2017-11-22T08:11:55.175Z,80032.00
2017-11-22T08:12:55.088Z,86176.00
2017-11-22T08:13:55.006Z,93440.00
2017-11-22T08:14:54.923Z,96160.00
2017-11-22T08:15:54.850Z,95040.00
2017-11-22T08:16:54.763Z,95648.00
2017-11-22T08:17:54.679Z,100032.00
2017-11-22T08:18:54.601Z,101472.00
2017-11-22T08:19:54.527Z,99456.00
2017-11-22T08:20:54.441Z,98912.00
2017-11-22T08:21:54.361Z,55360.00
2017-11-22T08:22:54.288Z,84032.00
2017-11-22T08:23:54.202Z,60832.00
2017-11-22T08:24:54.122Z,90048.00
2017-11-22T08:25:54.041Z,80160.00
2017-11-22T08:26:53.960Z,89152.00
2017-11-22T08:27:53.886Z,61152.00
2017-11-22T08:28:53.803Z,65536.00
2017-11-22T08:29:53.724Z,50560.00
2017-11-22T08:30:53.645Z,66240.00
2017-11-22T08:31:53.595Z,20256.00
2017-11-22T08:32:53.486Z,46560.00
2017-11-22T08:33:53.409Z,32864.00
2017-11-22T08:34:53.337Z,66656.00
2017-11-22T08:35:53.242Z,58240.00
2017-11-22T08:36:53.164Z,96096.00
2017-11-22T08:37:53.085Z,96992.00
2017-11-22T08:38:53.012Z,96192.00
2017-11-22T08:39:52.922Z,96928.00
2017-11-22T08:40:52.850Z,96064.00
2017-11-22T08:41:52.761Z,97408.00
2017-11-22T08:42:52.687Z,96960.00
2017-11-22T08:43:52.607Z,97120.00
2017-11-22T08:44:52.531Z,91712.00
2017-11-22T08:45:52.453Z,99456.00
2017-11-22T08:46:52.370Z,101568.00
2017-11-22T08:47:52.289Z,99744.00
2017-11-22T08:48:52.210Z,100864.00
2017-11-22T08:49:52.134Z,103232.00
2017-11-22T08:50:52.056Z,103776.00
2017-11-22T08:51:51.974Z,102432.00
2017-11-22T08:52:51.905Z,102112.00
2017-11-22T08:53:51.831Z,101952.00
2017-11-22T08:54:51.750Z,103712.00
2017-11-22T08:55:51.675Z,105408.00
2017-11-22T08:56:51.599Z,105856.00
2017-11-22T08:57:51.513Z,106304.00
2017-11-22T08:58:51.449Z,106848.00
2017-11-22T08:59:51.369Z,103136.00
2017-11-22T09:00:51.296Z,102688.00
2017-11-22T09:01:51.220Z,103936.00
2017-11-22T09:02:51.135Z,103424.00
2017-11-22T09:03:51.052Z,99456.00
2017-11-22T09:04:50.979Z,107488.00
2017-11-22T09:05:50.905Z,107776.00
2017-11-22T09:06:50.830Z,106016.00
2017-11-22T09:07:50.751Z,103616.00
2017-11-22T09:08:50.675Z,85760.00
2017-11-22T09:09:50.613Z,70752.00
2017-11-22T09:10:50.546Z,92704.00
2017-11-22T09:11:50.448Z,99392.00
2017-11-22T09:12:50.375Z,107744.00
2017-11-22T09:13:50.296Z,109152.00
2017-11-22T09:14:50.222Z,107008.00
2017-11-22T09:15:50.148Z,101344.00
2017-11-22T09:16:50.067Z,111104.00
2017-11-22T09:17:50.022Z,111808.00
2017-11-22T09:18:49.926Z,113696.00
2017-11-22T09:19:49.846Z,112736.00
2017-11-22T09:20:49.782Z,113184.00
2017-11-22T09:21:49.694Z,114144.00
2017-11-22T09:22:49.632Z,96096.00
2017-11-22T09:23:49.558Z,91136.00
2017-11-22T09:24:49.472Z,101024.00
2017-11-22T09:25:49.398Z,87296.00
2017-11-22T09:26:49.336Z,88128.00
2017-11-22T09:27:49.275Z,97472.00
2017-11-22T09:28:49.173Z,99712.00
2017-11-22T09:29:49.094Z,103584.00
2017-11-22T09:30:49.025Z,99872.00
2017-11-22T09:31:48.954Z,92448.00
2017-11-22T09:32:48.878Z,83616.00
2017-11-22T09:33:48.811Z,78272.00
2017-11-22T09:34:48.725Z,71648.00
2017-11-22T09:35:48.656Z,73856.00
2017-11-22T09:36:48.573Z,67072.00
2017-11-22T09:37:48.497Z,52896.00
2017-11-22T09:38:48.451Z,60608.00
2017-11-22T09:39:48.353Z,59904.00
2017-11-22T09:40:48.279Z,62592.00
2017-11-22T09:41:48.197Z,60256.00
2017-11-22T09:42:48.125Z,65376.00
2017-11-22T09:43:48.042Z,67584.00
2017-11-22T09:44:47.969Z,67200.00
2017-11-22T09:45:47.920Z,66080.00
2017-11-22T09:46:47.812Z,61376.00
2017-11-22T09:47:47.737Z,56576.00
2017-11-22T09:48:47.679Z,53056.00
2017-11-22T09:49:47.590Z,62432.00
2017-11-22T09:50:47.527Z,67008.00
2017-11-22T09:51:47.432Z,65408.00
2017-11-22T09:52:47.348Z,65408.00
2017-11-22T09:53:47.312Z,67584.00
2017-11-22T09:54:47.214Z,69920.00
2017-11-22T09:55:47.128Z,67968.00
2017-11-22T09:56:47.054Z,69760.00
2017-11-22T09:57:46.980Z,68960.00
2017-11-22T09:58:46.907Z,72224.00
2017-11-22T09:59:46.869Z,82016.00
2017-11-22T10:00:46.746Z,83776.00
2017-11-22T10:01:46.661Z,82208.00
2017-11-22T10:02:46.591Z,83680.00
2017-11-22T10:03:46.511Z,72512.00
2017-11-22T10:04:46.440Z,72704.00
2017-11-22T10:05:46.354Z,72128.00
2017-11-22T10:06:46.275Z,68928.00
2017-11-22T10:07:46.226Z,73216.00
2017-11-22T10:08:46.126Z,77472.00
2017-11-22T10:09:46.049Z,74208.00
2017-11-22T10:10:45.976Z,67424.00
2017-11-22T10:11:45.891Z,70272.00
2017-11-22T10:12:45.819Z,69856.00
2017-11-22T10:13:45.752Z,65408.00
2017-11-22T10:14:45.659Z,59296.00
2017-11-22T10:15:45.595Z,64384.00
2017-11-22T10:16:45.511Z,67936.00
2017-11-22T10:17:45.465Z,62240.00
2017-11-22T10:18:45.370Z,59296.00
2017-11-22T10:19:45.276Z,71584.00
2017-11-22T10:20:45.210Z,71616.00
2017-11-22T10:21:45.136Z,71232.00
2017-11-22T10:22:45.047Z,68288.00
2017-11-22T10:23:44.974Z,70144.00
2017-11-22T10:24:44.895Z,61216.00
2017-11-22T10:25:44.819Z,59360.00
2017-11-22T10:26:44.752Z,59744.00
2017-11-22T10:27:44.664Z,61216.00
2017-11-22T10:28:44.592Z,69440.00
2017-11-22T10:29:44.531Z,74368.00
2017-11-22T10:30:44.435Z,74304.00
2017-11-22T10:31:44.365Z,71936.00
2017-11-22T10:32:44.285Z,75104.00
2017-11-22T10:33:44.219Z,74944.00
2017-11-22T10:34:44.128Z,81632.00
2017-11-22T10:35:44.060Z,79552.00
2017-11-22T10:36:43.980Z,76096.00
2017-11-22T10:37:43.961Z,71424.00
2017-11-22T10:38:43.819Z,74560.00
2017-11-22T10:39:43.742Z,72736.00
2017-11-22T10:40:43.679Z,82240.00
2017-11-22T10:41:43.584Z,85024.00
2017-11-22T10:42:43.515Z,86496.00
2017-11-22T10:43:43.436Z,85824.00
2017-11-22T10:44:43.365Z,86784.00
2017-11-22T10:45:43.304Z,84032.00
2017-11-22T10:46:43.213Z,87040.00
2017-11-22T10:47:43.156Z,67424.00
2017-11-22T10:48:43.064Z,69568.00
2017-11-22T10:49:42.994Z,74240.00
2017-11-22T10:50:42.930Z,75040.00
2017-11-22T10:51:42.835Z,63488.00
2017-11-22T10:52:42.777Z,50080.00
2017-11-22T10:53:42.689Z,51872.00
2017-11-22T10:54:42.617Z,56768.00
2017-11-22T10:55:42.560Z,57120.00
2017-11-22T10:56:42.466Z,57184.00
2017-11-22T10:57:42.390Z,61216.00
2017-11-22T10:58:42.317Z,56736.00
2017-11-22T10:59:42.238Z,66880.00
2017-11-22T11:00:42.177Z,57024.00
2017-11-22T11:01:42.093Z,46720.00
2017-11-22T11:02:42.035Z,66112.00
2017-11-22T11:03:41.965Z,67808.00
2017-11-22T11:04:41.894Z,63520.00
2017-11-22T11:05:41.795Z,65600.00
2017-11-22T11:06:41.714Z,73536.00
2017-11-22T11:07:41.639Z,73760.00
2017-11-22T11:08:41.560Z,75264.00
2017-11-22T11:09:41.480Z,74208.00
2017-11-22T11:10:41.410Z,69600.00
2017-11-22T11:11:41.333Z,66112.00
2017-11-22T11:12:41.266Z,65600.00
2017-11-22T11:13:41.186Z,64896.00
2017-11-22T11:14:41.101Z,60768.00
2017-11-22T11:15:41.037Z,62784.00
2017-11-22T11:16:40.958Z,60384.00
2017-11-22T11:17:40.885Z,60288.00
2017-11-22T11:18:40.807Z,60096.00
2017-11-22T11:19:40.727Z,61504.00
2017-11-22T11:20:40.664Z,59040.00
2017-11-22T11:21:40.576Z,49856.00
2017-11-22T11:22:40.500Z,47296.00
2017-11-22T11:23:40.429Z,44032.00
2017-11-22T11:24:40.363Z,46528.00
2017-11-22T11:25:40.299Z,44224.00
2017-11-22T11:26:40.203Z,45600.00
2017-11-22T11:27:40.120Z,47648.00
2017-11-22T11:28:40.043Z,48480.00
2017-11-22T11:29:39.966Z,44896.00
2017-11-22T11:30:39.892Z,48672.00
2017-11-22T11:31:39.838Z,49952.00
2017-11-22T11:32:39.741Z,50528.00
2017-11-22T11:33:39.666Z,51232.00
2017-11-22T11:34:39.594Z,46688.00
2017-11-22T11:35:39.514Z,42368.00
2017-11-22T11:36:39.432Z,45312.00
2017-11-22T11:37:39.373Z,50304.00
2017-11-22T11:38:39.284Z,44256.00
2017-11-22T11:39:39.200Z,31776.00
2017-11-22T11:40:39.126Z,20640.00
2017-11-22T11:41:39.043Z,18720.00
2017-11-22T11:42:38.986Z,18112.00
2017-11-22T11:43:38.902Z,17664.00
2017-11-22T11:44:38.803Z,17184.00
2017-11-22T11:45:38.730Z,16768.00
2017-11-22T11:46:38.654Z,16480.00
2017-11-22T11:47:38.571Z,16576.00
2017-11-22T11:48:38.500Z,16864.00
2017-11-22T11:49:38.417Z,17440.00
2017-11-22T11:50:38.341Z,17504.00
2017-11-22T11:51:38.256Z,17248.00
2017-11-22T11:52:38.197Z,16736.00
2017-11-22T11:53:38.102Z,16160.00
2017-11-22T11:54:38.058Z,15712.00
2017-11-22T11:55:37.946Z,15160.00
2017-11-22T11:56:37.860Z,14652.00
2017-11-22T11:57:37.790Z,14224.00
2017-11-22T11:58:37.704Z,13784.00
2017-11-22T11:59:37.631Z,13180.00
2017-11-22T12:00:37.551Z,12980.00
2017-11-22T12:01:37.519Z,12548.00
2017-11-22T12:02:37.436Z,12276.00
2017-11-22T12:03:37.351Z,12060.00
2017-11-22T12:04:37.243Z,11864.00
2017-11-22T12:05:37.224Z,11680.00
2017-11-22T12:06:37.105Z,11480.00
2017-11-22T12:07:37.020Z,11228.00
2017-11-22T12:08:36.959Z,10916.00
2017-11-22T12:09:36.860Z,10652.00
2017-11-22T12:10:36.775Z,10388.00
2017-11-22T12:11:36.678Z,10176.00
2017-11-22T12:12:36.624Z,10132.00
2017-11-22T12:13:36.529Z,10012.00
2017-11-22T12:14:36.441Z,9816.00
2017-11-22T12:15:36.364Z,9640.00
2017-11-22T12:16:36.285Z,9400.00
2017-11-22T12:17:36.223Z,9128.00
2017-11-22T12:18:36.131Z,9032.00
2017-11-22T12:19:36.057Z,9004.00
2017-11-22T12:20:35.968Z,8836.00
2017-11-22T12:21:35.892Z,8820.00
2017-11-22T12:22:35.811Z,8744.00
2017-11-22T12:23:35.778Z,8592.00
2017-11-22T12:24:35.657Z,8420.00
2017-11-22T12:25:35.572Z,8324.00
2017-11-22T12:26:35.512Z,8208.00
2017-11-22T12:27:35.416Z,8052.00
2017-11-22T12:28:35.338Z,7984.00
2017-11-22T12:29:35.276Z,7828.00
2017-11-22T12:30:35.186Z,7752.00
2017-11-22T12:31:35.114Z,7656.00